Time;durP1;ratioP1;P1;durP2;ratioP2;P2;SDS_P1;SDS_P2;PMS_P1;PMS_P2;Temp;Humidity;BMP_temperature;BMP_pressure;BME280_temperature;BME280_humidity;BME280_pressure;Samples;Min_cycle;Max_cycle;Signal;HPM_P1;HPM_P2
2022/08/11 00:14:31;;;;;;;15.32;10.55;;;;;;;24.67;63.04;99744.03;30982546;28;20042;-74
2022/08/11 00:29:38;;;;;;;17.52;10.90;;;;;;;24.51;63.59;99747.78;31002546;28;20106;-73
2022/08/11 00:45:01;;;;;;;13.90;10.23;;;;;;;24.37;63.52;99751.72;30987933;28;20489;-73
2022/08/11 01:00:19;;;;;;;16.55;9.88;;;;;;;24.18;65.28;99737.78;30996109;28;20054;-74
2022/08/11 01:15:48;;;;;;;16.55;10.90;;;;;;;23.99;65.67;99746.06;31002471;28;20137;-73
2022/08/11 01:31:40;;;;;;;11.75;9.95;;;;;;;23.94;65.51;99752.41;30981268;28;20109;-73
2022/08/11 01:46:49;;;;;;;13.02;10.02;;;;;;;23.87;64.96;99747.41;30980893;28;20369;-74
2022/08/11 02:02:12;;;;;;;15.88;9.75;;;;;;;23.83;63.85;99735.88;30996743;28;20058;-68
2022/08/11 02:17:55;;;;;;;18.13;10.00;;;;;;;23.68;65.25;99750.13;30984232;28;20066;-72
2022/08/11 02:33:21;;;;;;;13.70;8.88;;;;;;;23.75;63.84;99759.88;30976233;28;20046;-73
2022/08/11 03:04:16;;;;;;;10.83;8.73;;;;;;;24.02;61.85;99786.59;30955200;28;20050;-73
2022/08/11 03:19:28;;;;;;;12.68;8.85;;;;;;;24.16;61.64;99806.88;30968625;28;20050;-74
2022/08/11 03:34:36;;;;;;;11.30;8.80;;;;;;;24.29;61.56;99809.06;30989949;28;20049;-74
2022/08/11 03:49:53;;;;;;;21.13;10.13;;;;;;;24.44;61.05;99812.16;31001668;28;20069;-75
2022/08/11 04:05:20;;;;;;;14.40;9.18;;;;;;;24.54;60.11;99813.31;30961099;28;20054;-74
2022/08/11 04:21:01;;;;;;;14.32;9.63;;;;;;;24.48;60.32;99837.59;30961342;28;20047;-73
2022/08/11 04:37:30;;;;;;;13.63;10.05;;;;;;;24.63;61.13;99815.72;30956186;28;20062;-73
2022/08/11 05:08:16;;;;;;;13.27;10.35;;;;;;;24.87;60.09;99811.41;30978078;28;20053;-75
2022/08/11 06:10:00;;;;;;;24.25;11.63;;;;;;;27.90;46.98;99842.28;30951175;28;20085;-74
2022/08/11 06:25:04;;;;;;;20.83;12.35;;;;;;;27.85;44.47;99845.97;30967975;28;20058;-73
2022/08/11 06:40:26;;;;;;;19.80;11.48;;;;;;;28.58;43.42;99847.66;30996678;28;20054;-74
2022/08/11 07:41:47;;;;;;;28.05;14.75;;;;;;;31.81;37.59;99846.41;30969401;28;20050;-73
2022/08/11 07:56:50;;;;;;;29.33;18.65;;;;;;;33.14;34.45;99833.44;31002510;28;20065;-81
2022/08/11 08:27:33;;;;;;;32.10;16.83;;;;;;;33.50;32.62;99819.44;30999357;28;20394;-82
2022/08/11 08:42:45;;;;;;;31.58;19.05;;;;;;;34.19;31.49;99819.06;31008990;28;20401;-81
2022/08/11 08:57:53;;;;;;;28.30;15.65;;;;;;;34.33;29.91;99827.13;31018395;28;20050;-82
2022/08/11 09:12:59;;;;;;;22.57;14.20;;;;;;;35.01;30.60;99816.56;30996596;28;20043;-85
2022/08/11 09:28:03;;;;;;;22.88;15.07;;;;;;;35.40;30.06;99811.59;30996812;28;20056;-78
2022/08/11 09:58:29;;;;;;;28.73;16.10;;;;;;;35.61;27.44;99793.97;30990656;28;20050;-73
2022/08/11 10:45:00;;;;;;;26.98;15.23;;;;;;;34.69;27.35;99790.34;30971130;28;20057;-73
2022/08/11 11:00:05;;;;;;;30.38;15.13;;;;;;;35.61;27.19;99794.72;30979918;28;20058;-74
2022/08/11 11:30:41;;;;;;;21.50;13.77;;;;;;;34.59;27.76;99795.25;30992219;28;20074;-72
2022/08/11 11:45:43;;;;;;;24.65;13.73;;;;;;;33.84;28.95;99789.66;30985914;28;20056;-74
2022/08/11 12:16:14;;;;;;;20.63;12.40;;;;;;;33.49;30.00;99772.94;31011661;28;20050;-85
2022/08/11 12:31:38;;;;;;;18.38;11.02;;;;;;;33.28;30.09;99775.53;31044386;28;20141;-77
2022/08/11 12:46:44;;;;;;;30.90;19.17;;;;;;;33.46;29.17;99782.56;31016950;28;20501;-79
2022/08/11 13:17:29;;;;;;;15.00;9.40;;;;;;;32.92;28.86;99762.13;30985580;28;20069;-80
2022/08/11 13:32:45;;;;;;;20.08;12.57;;;;;;;32.29;35.71;99764.75;30986846;28;20149;-75
2022/08/11 13:47:48;;;;;;;25.98;13.02;;;;;;;31.62;38.79;99762.72;31005503;28;20649;-83
2022/08/11 14:02:53;;;;;;;21.75;14.27;;;;;;;31.30;41.77;99755.09;31004321;28;20056;-85
2022/08/11 14:18:08;;;;;;;20.65;13.45;;;;;;;31.00;43.19;99752.47;31002057;28;20050;-78
2022/08/11 14:33:11;;;;;;;20.95;12.93;;;;;;;30.66;43.84;99739.75;31003872;28;20493;-72
2022/08/11 14:48:18;;;;;;;21.98;12.95;;;;;;;30.57;44.49;99759.22;30967556;28;20133;-73
2022/08/11 15:03:21;;;;;;;25.35;14.68;;;;;;;30.43;44.46;99736.28;30978242;28;20054;-71
2022/08/11 15:18:30;;;;;;;18.90;12.00;;;;;;;30.17;44.72;99735.44;30972417;28;20082;-72
2022/08/11 15:48:58;;;;;;;16.95;11.02;;;;;;;29.94;44.73;99729.09;30964405;28;20046;-79
2022/08/11 16:04:10;;;;;;;14.07;10.75;;;;;;;29.89;44.46;99760.81;30995638;28;20537;-83
2022/08/11 16:19:15;;;;;;;14.48;11.07;;;;;;;29.82;43.74;99775.53;30967170;28;20083;-75
2022/08/11 16:49:45;;;;;;;14.95;10.68;;;;;;;29.66;44.07;99844.00;30962102;28;20768;-71
2022/08/11 17:20:15;;;;;;;22.20;13.30;;;;;;;25.28;78.02;99822.97;31056018;28;20145;-72
2022/08/11 17:35:42;;;;;;;18.80;10.37;;;;;;;24.74;78.18;99796.19;31007235;28;20093;-71
2022/08/11 17:50:45;;;;;;;19.45;11.93;;;;;;;25.15;86.83;99825.72;30989755;28;20054;-70
2022/08/11 18:05:50;;;;;;;21.70;12.55;;;;;;;25.58;87.83;99839.47;31038201;28;20464;-70
